Nuriootpa, Australia
Current Conditions -  °F | °C
As of 8:00 PM on Wednesday 22 Oct 2014 (Local Time) from YPAD Reporting Station
Broken Clouds Broken Clouds  
Wind Chill: 64°   Ceiling: 26000
Heat Index: 64°   Visibility: 6mi
Dew Point: 52°   Wind: 14mph
Humidity: 64%   Direction: 170°S
Pressure: 30.06"   Gusts: NA
Location:  34.47°S, 139°E
Report Text: YPAD 221000Z 17012KT 9999 FEW025 BKN260 18/11 Q1018 NOSIG
Loading
Personal Weather Stations






























Interactive Weather Map
Tropical Storm Tracking
New forecast layout! Learn more

10-Day Weather Forecast

Advertisements
Track Severe Weather on mobile